sensor_id;sensor_type;location;lat;lon;timestamp;P1;durP1;ratioP1;P2;durP2;ratioP2
4309;SDS011;2168;53.576;9.980;2023-11-19T00:00:08;0.70;;;0.70;;
4309;SDS011;2168;53.576;9.980;2023-11-19T00:02:37;0.80;;;0.80;;
4309;SDS011;2168;53.576;9.980;2023-11-19T00:05:02;0.60;;;0.60;;
4309;SDS011;2168;53.576;9.980;2023-11-19T00:07:28;0.70;;;0.70;;
4309;SDS011;2168;53.576;9.980;2023-11-19T00:09:53;0.60;;;0.60;;
4309;SDS011;2168;53.576;9.980;2023-11-19T00:12:20;0.50;;;0.50;;
4309;SDS011;2168;53.576;9.980;2023-11-19T00:14:45;0.70;;;0.70;;
4309;SDS011;2168;53.576;9.980;2023-11-19T00:17:10;0.63;;;0.63;;
4309;SDS011;2168;53.576;9.980;2023-11-19T00:19:35;0.60;;;0.60;;
4309;SDS011;2168;53.576;9.980;2023-11-19T00:22:00;1.10;;;1.10;;
4309;SDS011;2168;53.576;9.980;2023-11-19T00:24:27;0.60;;;0.60;;
4309;SDS011;2168;53.576;9.980;2023-11-19T00:26:53;0.60;;;0.60;;
4309;SDS011;2168;53.576;9.980;2023-11-19T00:29:18;0.50;;;0.50;;
4309;SDS011;2168;53.576;9.980;2023-11-19T00:31:44;0.60;;;0.60;;
4309;SDS011;2168;53.576;9.980;2023-11-19T00:34:09;0.70;;;0.70;;
4309;SDS011;2168;53.576;9.980;2023-11-19T00:36:35;0.60;;;0.60;;
4309;SDS011;2168;53.576;9.980;2023-11-19T00:39:00;0.60;;;0.60;;
4309;SDS011;2168;53.576;9.980;2023-11-19T00:41:26;0.70;;;0.70;;
4309;SDS011;2168;53.576;9.980;2023-11-19T00:43:51;0.60;;;0.60;;
4309;SDS011;2168;53.576;9.980;2023-11-19T00:46:16;0.60;;;0.60;;
4309;SDS011;2168;53.576;9.980;2023-11-19T00:48:41;0.60;;;0.60;;
4309;SDS011;2168;53.576;9.980;2023-11-19T00:51:06;0.63;;;0.63;;
4309;SDS011;2168;53.576;9.980;2023-11-19T00:53:32;0.80;;;0.80;;
4309;SDS011;2168;53.576;9.980;2023-11-19T00:55:58;0.70;;;0.70;;
4309;SDS011;2168;53.576;9.980;2023-11-19T00:58:23;0.57;;;0.57;;
4309;SDS011;2168;53.576;9.980;2023-11-19T01:00:49;0.70;;;0.70;;
4309;SDS011;2168;53.576;9.980;2023-11-19T01:03:14;0.60;;;0.60;;
4309;SDS011;2168;53.576;9.980;2023-11-19T01:05:40;1.30;;;1.30;;
4309;SDS011;2168;53.576;9.980;2023-11-19T01:08:06;0.70;;;0.70;;
4309;SDS011;2168;53.576;9.980;2023-11-19T01:10:31;0.57;;;0.57;;
4309;SDS011;2168;53.576;9.980;2023-11-19T01:12:56;0.67;;;0.67;;
4309;SDS011;2168;53.576;9.980;2023-11-19T01:15:22;0.60;;;0.60;;
4309;SDS011;2168;53.576;9.980;2023-11-19T01:17:47;0.70;;;0.70;;
4309;SDS011;2168;53.576;9.980;2023-11-19T01:20:13;0.70;;;0.70;;
4309;SDS011;2168;53.576;9.980;2023-11-19T01:22:38;0.60;;;0.60;;
4309;SDS011;2168;53.576;9.980;2023-11-19T01:25:04;0.60;;;0.60;;
4309;SDS011;2168;53.576;9.980;2023-11-19T01:27:30;0.60;;;0.60;;
4309;SDS011;2168;53.576;9.980;2023-11-19T01:29:56;0.70;;;0.70;;
4309;SDS011;2168;53.576;9.980;2023-11-19T01:32:21;0.60;;;0.60;;
4309;SDS011;2168;53.576;9.980;2023-11-19T01:34:46;0.60;;;0.60;;
4309;SDS011;2168;53.576;9.980;2023-11-19T01:37:11;0.60;;;0.60;;
4309;SDS011;2168;53.576;9.980;2023-11-19T01:39:39;0.70;;;0.70;;
4309;SDS011;2168;53.576;9.980;2023-11-19T01:42:05;0.70;;;0.70;;
4309;SDS011;2168;53.576;9.980;2023-11-19T01:44:30;0.70;;;0.70;;
4309;SDS011;2168;53.576;9.980;2023-11-19T01:46:57;0.60;;;0.60;;
4309;SDS011;2168;53.576;9.980;2023-11-19T01:49:22;0.60;;;0.60;;
4309;SDS011;2168;53.576;9.980;2023-11-19T01:51:47;0.60;;;0.60;;
4309;SDS011;2168;53.576;9.980;2023-11-19T01:54:12;0.70;;;0.70;;
4309;SDS011;2168;53.576;9.980;2023-11-19T01:56:38;0.70;;;0.70;;
4309;SDS011;2168;53.576;9.980;2023-11-19T01:59:05;0.67;;;0.67;;
4309;SDS011;2168;53.576;9.980;2023-11-19T02:01:31;0.70;;;0.70;;
4309;SDS011;2168;53.576;9.980;2023-11-19T02:03:59;0.60;;;0.60;;
4309;SDS011;2168;53.576;9.980;2023-11-19T02:06:24;0.60;;;0.60;;
4309;SDS011;2168;53.576;9.980;2023-11-19T02:08:50;0.80;;;0.80;;
4309;SDS011;2168;53.576;9.980;2023-11-19T02:11:16;0.77;;;0.77;;
4309;SDS011;2168;53.576;9.980;2023-11-19T02:13:42;0.80;;;0.80;;
4309;SDS011;2168;53.576;9.980;2023-11-19T02:16:08;0.73;;;0.73;;
4309;SDS011;2168;53.576;9.980;2023-11-19T02:18:36;0.70;;;0.70;;
4309;SDS011;2168;53.576;9.980;2023-11-19T02:21:01;0.70;;;0.70;;
4309;SDS011;2168;53.576;9.980;2023-11-19T02:23:26;0.83;;;0.83;;
4309;SDS011;2168;53.576;9.980;2023-11-19T02:28:17;0.80;;;0.80;;
4309;SDS011;2168;53.576;9.980;2023-11-19T02:30:43;0.80;;;0.80;;
4309;SDS011;2168;53.576;9.980;2023-11-19T02:33:08;0.60;;;0.60;;
4309;SDS011;2168;53.576;9.980;2023-11-19T02:35:33;0.60;;;0.60;;
4309;SDS011;2168;53.576;9.980;2023-11-19T02:37:59;0.80;;;0.80;;
4309;SDS011;2168;53.576;9.980;2023-11-19T02:40:25;0.80;;;0.80;;
4309;SDS011;2168;53.576;9.980;2023-11-19T02:42:52;0.83;;;0.83;;
4309;SDS011;2168;53.576;9.980;2023-11-19T02:45:17;0.60;;;0.60;;
4309;SDS011;2168;53.576;9.980;2023-11-19T02:47:43;0.80;;;0.80;;
4309;SDS011;2168;53.576;9.980;2023-11-19T02:50:11;0.80;;;0.80;;
4309;SDS011;2168;53.576;9.980;2023-11-19T02:52:42;0.70;;;0.70;;
4309;SDS011;2168;53.576;9.980;2023-11-19T02:55:10;0.70;;;0.70;;
4309;SDS011;2168;53.576;9.980;2023-11-19T02:57:41;0.70;;;0.70;;
4309;SDS011;2168;53.576;9.980;2023-11-19T03:00:16;0.80;;;0.80;;
4309;SDS011;2168;53.576;9.980;2023-11-19T03:02:42;0.80;;;0.80;;
4309;SDS011;2168;53.576;9.980;2023-11-19T03:05:19;0.80;;;0.80;;
4309;SDS011;2168;53.576;9.980;2023-11-19T03:07:44;0.70;;;0.70;;
4309;SDS011;2168;53.576;9.980;2023-11-19T03:10:10;0.70;;;0.70;;
4309;SDS011;2168;53.576;9.980;2023-11-19T03:12:38;0.80;;;0.80;;
4309;SDS011;2168;53.576;9.980;2023-11-19T03:15:04;0.70;;;0.70;;
4309;SDS011;2168;53.576;9.980;2023-11-19T03:17:29;0.60;;;0.60;;
4309;SDS011;2168;53.576;9.980;2023-11-19T03:19:54;0.70;;;0.70;;
4309;SDS011;2168;53.576;9.980;2023-11-19T03:22:19;0.70;;;0.70;;
4309;SDS011;2168;53.576;9.980;2023-11-19T03:24:45;0.67;;;0.67;;
4309;SDS011;2168;53.576;9.980;2023-11-19T03:27:11;0.80;;;0.80;;
4309;SDS011;2168;53.576;9.980;2023-11-19T03:29:36;0.70;;;0.70;;
4309;SDS011;2168;53.576;9.980;2023-11-19T03:32:01;0.87;;;0.87;;
4309;SDS011;2168;53.576;9.980;2023-11-19T03:34:26;0.70;;;0.70;;
4309;SDS011;2168;53.576;9.980;2023-11-19T03:36:51;0.80;;;0.80;;
4309;SDS011;2168;53.576;9.980;2023-11-19T03:39:17;0.60;;;0.60;;
4309;SDS011;2168;53.576;9.980;2023-11-19T03:41:45;0.60;;;0.60;;
4309;SDS011;2168;53.576;9.980;2023-11-19T03:44:10;1.33;;;1.33;;
4309;SDS011;2168;53.576;9.980;2023-11-19T03:46:35;0.77;;;0.77;;
4309;SDS011;2168;53.576;9.980;2023-11-19T03:49:01;0.80;;;0.80;;
4309;SDS011;2168;53.576;9.980;2023-11-19T03:51:26;0.80;;;0.80;;
4309;SDS011;2168;53.576;9.980;2023-11-19T03:53:52;0.70;;;0.70;;
4309;SDS011;2168;53.576;9.980;2023-11-19T03:56:17;0.80;;;0.80;;
4309;SDS011;2168;53.576;9.980;2023-11-19T03:58:42;0.70;;;0.70;;
4309;SDS011;2168;53.576;9.980;2023-11-19T04:01:11;0.80;;;0.80;;
4309;SDS011;2168;53.576;9.980;2023-11-19T04:03:37;0.73;;;0.73;;
4309;SDS011;2168;53.576;9.980;2023-11-19T04:06:02;0.70;;;0.70;;
4309;SDS011;2168;53.576;9.980;2023-11-19T04:08:27;0.70;;;0.70;;
4309;SDS011;2168;53.576;9.980;2023-11-19T04:10:53;0.70;;;0.70;;
4309;SDS011;2168;53.576;9.980;2023-11-19T04:13:18;0.80;;;0.80;;
4309;SDS011;2168;53.576;9.980;2023-11-19T04:15:44;0.80;;;0.80;;
4309;SDS011;2168;53.576;9.980;2023-11-19T04:18:09;0.90;;;0.90;;
4309;SDS011;2168;53.576;9.980;2023-11-19T04:20:34;0.80;;;0.80;;
4309;SDS011;2168;53.576;9.980;2023-11-19T04:22:59;1.00;;;1.00;;
4309;SDS011;2168;53.576;9.980;2023-11-19T04:25:25;0.80;;;0.80;;
4309;SDS011;2168;53.576;9.980;2023-11-19T04:27:51;0.80;;;0.80;;
4309;SDS011;2168;53.576;9.980;2023-11-19T04:30:16;0.70;;;0.70;;
4309;SDS011;2168;53.576;9.980;2023-11-19T04:32:41;0.80;;;0.80;;
4309;SDS011;2168;53.576;9.980;2023-11-19T04:35:06;0.70;;;0.70;;
4309;SDS011;2168;53.576;9.980;2023-11-19T04:37:32;0.77;;;0.77;;
4309;SDS011;2168;53.576;9.980;2023-11-19T04:39:57;0.80;;;0.80;;
4309;SDS011;2168;53.576;9.980;2023-11-19T04:42:22;0.60;;;0.60;;
4309;SDS011;2168;53.576;9.980;2023-11-19T04:44:48;0.80;;;0.80;;
4309;SDS011;2168;53.576;9.980;2023-11-19T04:47:13;0.73;;;0.73;;
4309;SDS011;2168;53.576;9.980;2023-11-19T04:49:42;0.80;;;0.80;;
4309;SDS011;2168;53.576;9.980;2023-11-19T04:52:08;1.37;;;1.37;;
4309;SDS011;2168;53.576;9.980;2023-11-19T04:54:33;0.80;;;0.80;;
4309;SDS011;2168;53.576;9.980;2023-11-19T04:56:58;0.80;;;0.80;;
4309;SDS011;2168;53.576;9.980;2023-11-19T04:59:23;0.80;;;0.80;;
4309;SDS011;2168;53.576;9.980;2023-11-19T05:01:49;0.70;;;0.70;;
4309;SDS011;2168;53.576;9.980;2023-11-19T05:04:14;0.90;;;0.90;;
4309;SDS011;2168;53.576;9.980;2023-11-19T05:06:39;0.77;;;0.77;;
4309;SDS011;2168;53.576;9.980;2023-11-19T05:09:05;0.80;;;0.80;;
4309;SDS011;2168;53.576;9.980;2023-11-19T05:11:32;0.90;;;0.90;;
4309;SDS011;2168;53.576;9.980;2023-11-19T05:13:59;0.90;;;0.90;;
4309;SDS011;2168;53.576;9.980;2023-11-19T05:16:24;0.80;;;0.80;;
4309;SDS011;2168;53.576;9.980;2023-11-19T05:18:49;0.80;;;0.80;;
4309;SDS011;2168;53.576;9.980;2023-11-19T05:21:14;0.80;;;0.80;;
4309;SDS011;2168;53.576;9.980;2023-11-19T05:23:39;2.10;;;2.10;;
4309;SDS011;2168;53.576;9.980;2023-11-19T05:26:06;0.87;;;0.87;;
4309;SDS011;2168;53.576;9.980;2023-11-19T05:28:32;0.80;;;0.80;;
4309;SDS011;2168;53.576;9.980;2023-11-19T05:30:57;0.70;;;0.70;;
4309;SDS011;2168;53.576;9.980;2023-11-19T05:33:22;0.87;;;0.87;;
4309;SDS011;2168;53.576;9.980;2023-11-19T05:35:47;0.83;;;0.83;;
4309;SDS011;2168;53.576;9.980;2023-11-19T05:38:12;2.37;;;2.37;;
4309;SDS011;2168;53.576;9.980;2023-11-19T05:40:38;0.70;;;0.70;;
4309;SDS011;2168;53.576;9.980;2023-11-19T05:43:04;0.80;;;0.80;;
4309;SDS011;2168;53.576;9.980;2023-11-19T05:45:30;0.83;;;0.83;;
4309;SDS011;2168;53.576;9.980;2023-11-19T05:47:55;1.00;;;1.00;;
4309;SDS011;2168;53.576;9.980;2023-11-19T05:50:20;0.83;;;0.83;;
4309;SDS011;2168;53.576;9.980;2023-11-19T05:52:46;0.77;;;0.77;;
4309;SDS011;2168;53.576;9.980;2023-11-19T05:55:11;0.70;;;0.70;;
4309;SDS011;2168;53.576;9.980;2023-11-19T05:57:37;0.80;;;0.80;;
4309;SDS011;2168;53.576;9.980;2023-11-19T06:00:02;0.80;;;0.80;;
4309;SDS011;2168;53.576;9.980;2023-11-19T06:02:29;0.80;;;0.80;;
4309;SDS011;2168;53.576;9.980;2023-11-19T06:04:54;0.70;;;0.70;;
4309;SDS011;2168;53.576;9.980;2023-11-19T06:07:19;0.73;;;0.73;;
4309;SDS011;2168;53.576;9.980;2023-11-19T06:09:45;0.90;;;0.90;;
4309;SDS011;2168;53.576;9.980;2023-11-19T06:12:10;0.90;;;0.90;;
4309;SDS011;2168;53.576;9.980;2023-11-19T06:14:35;0.80;;;0.80;;
4309;SDS011;2168;53.576;9.980;2023-11-19T06:17:01;0.67;;;0.67;;
4309;SDS011;2168;53.576;9.980;2023-11-19T06:19:26;0.70;;;0.70;;
4309;SDS011;2168;53.576;9.980;2023-11-19T06:21:51;0.80;;;0.80;;
4309;SDS011;2168;53.576;9.980;2023-11-19T06:24:17;0.73;;;0.73;;
4309;SDS011;2168;53.576;9.980;2023-11-19T06:26:42;0.70;;;0.70;;
4309;SDS011;2168;53.576;9.980;2023-11-19T06:29:07;0.70;;;0.70;;
4309;SDS011;2168;53.576;9.980;2023-11-19T06:31:32;0.80;;;0.80;;
4309;SDS011;2168;53.576;9.980;2023-11-19T06:33:57;0.70;;;0.70;;
4309;SDS011;2168;53.576;9.980;2023-11-19T06:36:23;0.67;;;0.67;;
4309;SDS011;2168;53.576;9.980;2023-11-19T06:38:48;0.60;;;0.60;;
4309;SDS011;2168;53.576;9.980;2023-11-19T06:41:13;0.70;;;0.70;;
4309;SDS011;2168;53.576;9.980;2023-11-19T06:43:39;1.00;;;1.00;;
4309;SDS011;2168;53.576;9.980;2023-11-19T06:46:05;0.70;;;0.70;;
4309;SDS011;2168;53.576;9.980;2023-11-19T06:48:31;1.30;;;1.30;;
4309;SDS011;2168;53.576;9.980;2023-11-19T06:50:57;0.73;;;0.73;;
4309;SDS011;2168;53.576;9.980;2023-11-19T06:53:22;0.90;;;0.90;;
4309;SDS011;2168;53.576;9.980;2023-11-19T06:55:47;0.63;;;0.63;;
4309;SDS011;2168;53.576;9.980;2023-11-19T06:58:12;0.70;;;0.70;;
4309;SDS011;2168;53.576;9.980;2023-11-19T07:00:37;0.70;;;0.70;;
4309;SDS011;2168;53.576;9.980;2023-11-19T07:03:02;0.70;;;0.70;;
4309;SDS011;2168;53.576;9.980;2023-11-19T07:05:28;0.70;;;0.70;;
4309;SDS011;2168;53.576;9.980;2023-11-19T07:07:53;0.70;;;0.70;;
4309;SDS011;2168;53.576;9.980;2023-11-19T07:10:19;0.97;;;0.97;;
4309;SDS011;2168;53.576;9.980;2023-11-19T07:12:44;0.70;;;0.70;;
4309;SDS011;2168;53.576;9.980;2023-11-19T07:15:10;0.80;;;0.80;;
4309;SDS011;2168;53.576;9.980;2023-11-19T07:17:35;0.90;;;0.90;;
4309;SDS011;2168;53.576;9.980;2023-11-19T07:20:01;1.00;;;1.00;;
4309;SDS011;2168;53.576;9.980;2023-11-19T07:22:27;0.70;;;0.70;;
4309;SDS011;2168;53.576;9.980;2023-11-19T07:24:54;0.70;;;0.70;;
4309;SDS011;2168;53.576;9.980;2023-11-19T07:27:19;0.80;;;0.80;;
4309;SDS011;2168;53.576;9.980;2023-11-19T07:29:44;0.80;;;0.80;;
4309;SDS011;2168;53.576;9.980;2023-11-19T07:32:10;0.80;;;0.80;;
4309;SDS011;2168;53.576;9.980;2023-11-19T07:34:35;0.63;;;0.63;;
4309;SDS011;2168;53.576;9.980;2023-11-19T07:37:00;0.70;;;0.70;;
4309;SDS011;2168;53.576;9.980;2023-11-19T07:39:27;0.80;;;0.80;;
4309;SDS011;2168;53.576;9.980;2023-11-19T07:41:52;0.80;;;0.80;;
4309;SDS011;2168;53.576;9.980;2023-11-19T07:44:18;0.87;;;0.87;;
4309;SDS011;2168;53.576;9.980;2023-11-19T07:46:43;1.40;;;1.40;;
4309;SDS011;2168;53.576;9.980;2023-11-19T07:49:09;0.90;;;0.90;;
4309;SDS011;2168;53.576;9.980;2023-11-19T07:51:35;0.90;;;0.90;;
4309;SDS011;2168;53.576;9.980;2023-11-19T07:54:01;0.90;;;0.90;;
4309;SDS011;2168;53.576;9.980;2023-11-19T07:56:26;1.10;;;1.10;;
4309;SDS011;2168;53.576;9.980;2023-11-19T07:58:51;1.10;;;1.10;;
4309;SDS011;2168;53.576;9.980;2023-11-19T08:01:16;1.37;;;1.37;;
4309;SDS011;2168;53.576;9.980;2023-11-19T08:03:42;1.00;;;1.00;;
4309;SDS011;2168;53.576;9.980;2023-11-19T08:06:07;1.10;;;1.10;;
4309;SDS011;2168;53.576;9.980;2023-11-19T08:08:32;1.00;;;1.00;;
4309;SDS011;2168;53.576;9.980;2023-11-19T08:10:58;1.00;;;1.00;;
4309;SDS011;2168;53.576;9.980;2023-11-19T08:13:24;0.97;;;0.97;;
4309;SDS011;2168;53.576;9.980;2023-11-19T08:15:50;1.20;;;1.20;;
4309;SDS011;2168;53.576;9.980;2023-11-19T08:18:15;0.80;;;0.80;;
4309;SDS011;2168;53.576;9.980;2023-11-19T08:20:40;0.83;;;0.83;;
4309;SDS011;2168;53.576;9.980;2023-11-19T08:23:06;1.00;;;1.00;;
4309;SDS011;2168;53.576;9.980;2023-11-19T08:25:31;1.10;;;1.10;;
4309;SDS011;2168;53.576;9.980;2023-11-19T08:27:58;1.00;;;1.00;;
4309;SDS011;2168;53.576;9.980;2023-11-19T08:30:23;1.20;;;1.20;;
4309;SDS011;2168;53.576;9.980;2023-11-19T08:32:49;0.90;;;0.90;;
4309;SDS011;2168;53.576;9.980;2023-11-19T08:35:14;0.87;;;0.87;;
4309;SDS011;2168;53.576;9.980;2023-11-19T08:37:40;1.20;;;1.20;;
4309;SDS011;2168;53.576;9.980;2023-11-19T08:40:07;1.00;;;1.00;;
4309;SDS011;2168;53.576;9.980;2023-11-19T08:42:32;1.17;;;1.17;;
4309;SDS011;2168;53.576;9.980;2023-11-19T08:44:57;1.00;;;1.00;;
4309;SDS011;2168;53.576;9.980;2023-11-19T08:47:23;1.40;;;1.40;;
4309;SDS011;2168;53.576;9.980;2023-11-19T08:49:50;1.40;;;1.40;;
4309;SDS011;2168;53.576;9.980;2023-11-19T08:52:16;1.17;;;1.17;;
4309;SDS011;2168;53.576;9.980;2023-11-19T08:54:42;1.13;;;1.13;;
4309;SDS011;2168;53.576;9.980;2023-11-19T08:57:07;1.33;;;1.33;;
4309;SDS011;2168;53.576;9.980;2023-11-19T08:59:33;1.47;;;1.47;;
4309;SDS011;2168;53.576;9.980;2023-11-19T09:01:59;2.10;;;2.10;;
4309;SDS011;2168;53.576;9.980;2023-11-19T09:04:24;1.70;;;1.70;;
4309;SDS011;2168;53.576;9.980;2023-11-19T09:06:49;1.23;;;1.23;;
4309;SDS011;2168;53.576;9.980;2023-11-19T09:09:14;1.70;;;1.70;;
4309;SDS011;2168;53.576;9.980;2023-11-19T09:11:40;1.53;;;1.53;;
4309;SDS011;2168;53.576;9.980;2023-11-19T09:14:05;1.70;;;1.70;;
4309;SDS011;2168;53.576;9.980;2023-11-19T09:16:31;1.30;;;1.30;;
4309;SDS011;2168;53.576;9.980;2023-11-19T09:18:57;1.50;;;1.50;;
4309;SDS011;2168;53.576;9.980;2023-11-19T09:21:23;1.93;;;1.93;;
4309;SDS011;2168;53.576;9.980;2023-11-19T09:23:48;1.23;;;1.23;;
4309;SDS011;2168;53.576;9.980;2023-11-19T09:26:14;1.70;;;1.70;;
4309;SDS011;2168;53.576;9.980;2023-11-19T09:28:39;1.97;;;1.97;;
4309;SDS011;2168;53.576;9.980;2023-11-19T09:31:16;1.80;;;1.80;;
4309;SDS011;2168;53.576;9.980;2023-11-19T09:33:42;1.40;;;1.40;;
4309;SDS011;2168;53.576;9.980;2023-11-19T09:36:07;1.53;;;1.53;;
4309;SDS011;2168;53.576;9.980;2023-11-19T09:38:33;1.10;;;1.10;;
4309;SDS011;2168;53.576;9.980;2023-11-19T09:40:58;1.27;;;1.27;;
4309;SDS011;2168;53.576;9.980;2023-11-19T09:43:24;1.33;;;1.33;;
4309;SDS011;2168;53.576;9.980;2023-11-19T09:45:51;1.60;;;1.60;;
4309;SDS011;2168;53.576;9.980;2023-11-19T09:48:16;1.10;;;1.10;;
4309;SDS011;2168;53.576;9.980;2023-11-19T09:50:42;1.83;;;1.83;;
4309;SDS011;2168;53.576;9.980;2023-11-19T09:53:07;1.40;;;1.40;;
4309;SDS011;2168;53.576;9.980;2023-11-19T09:55:32;1.90;;;1.90;;
4309;SDS011;2168;53.576;9.980;2023-11-19T09:57:58;1.43;;;1.43;;
4309;SDS011;2168;53.576;9.980;2023-11-19T10:00:26;1.50;;;1.50;;
4309;SDS011;2168;53.576;9.980;2023-11-19T10:02:51;1.20;;;1.20;;
4309;SDS011;2168;53.576;9.980;2023-11-19T10:05:17;1.60;;;1.60;;
4309;SDS011;2168;53.576;9.980;2023-11-19T10:07:43;1.63;;;1.63;;
4309;SDS011;2168;53.576;9.980;2023-11-19T10:10:09;1.50;;;1.50;;
4309;SDS011;2168;53.576;9.980;2023-11-19T10:12:38;2.80;;;2.80;;
4309;SDS011;2168;53.576;9.980;2023-11-19T10:15:04;2.27;;;2.27;;
4309;SDS011;2168;53.576;9.980;2023-11-19T10:17:33;2.47;;;2.47;;
4309;SDS011;2168;53.576;9.980;2023-11-19T10:19:59;1.50;;;1.50;;
4309;SDS011;2168;53.576;9.980;2023-11-19T10:22:24;1.90;;;1.90;;
4309;SDS011;2168;53.576;9.980;2023-11-19T10:24:51;2.40;;;2.40;;
4309;SDS011;2168;53.576;9.980;2023-11-19T10:27:16;1.33;;;1.33;;
4309;SDS011;2168;53.576;9.980;2023-11-19T10:29:45;2.10;;;2.10;;
4309;SDS011;2168;53.576;9.980;2023-11-19T10:32:11;1.50;;;1.50;;
4309;SDS011;2168;53.576;9.980;2023-11-19T10:34:37;2.67;;;2.67;;
4309;SDS011;2168;53.576;9.980;2023-11-19T10:37:04;2.03;;;2.03;;
4309;SDS011;2168;53.576;9.980;2023-11-19T10:42:16;2.50;;;2.50;;
4309;SDS011;2168;53.576;9.980;2023-11-19T10:44:41;3.33;;;3.33;;
4309;SDS011;2168;53.576;9.980;2023-11-19T10:47:07;1.60;;;1.60;;
4309;SDS011;2168;53.576;9.980;2023-11-19T10:49:33;1.73;;;1.73;;
4309;SDS011;2168;53.576;9.980;2023-11-19T10:52:00;1.73;;;1.73;;
4309;SDS011;2168;53.576;9.980;2023-11-19T10:54:25;1.87;;;1.87;;
4309;SDS011;2168;53.576;9.980;2023-11-19T10:56:54;1.70;;;1.70;;
4309;SDS011;2168;53.576;9.980;2023-11-19T10:59:20;1.80;;;1.80;;
4309;SDS011;2168;53.576;9.980;2023-11-19T11:01:46;1.60;;;1.60;;
4309;SDS011;2168;53.576;9.980;2023-11-19T11:04:19;2.30;;;2.30;;
4309;SDS011;2168;53.576;9.980;2023-11-19T11:06:45;1.90;;;1.90;;
4309;SDS011;2168;53.576;9.980;2023-11-19T11:09:11;2.17;;;2.17;;
4309;SDS011;2168;53.576;9.980;2023-11-19T11:11:39;2.00;;;2.00;;
4309;SDS011;2168;53.576;9.980;2023-11-19T11:14:05;1.67;;;1.67;;
4309;SDS011;2168;53.576;9.980;2023-11-19T11:16:30;1.53;;;1.53;;
4309;SDS011;2168;53.576;9.980;2023-11-19T11:18:56;1.77;;;1.77;;
4309;SDS011;2168;53.576;9.980;2023-11-19T11:21:22;1.70;;;1.70;;
4309;SDS011;2168;53.576;9.980;2023-11-19T11:31:40;1.73;;;1.73;;
4309;SDS011;2168;53.576;9.980;2023-11-19T11:34:25;1.87;;;1.87;;
4309;SDS011;2168;53.576;9.980;2023-11-19T11:39:21;1.30;;;1.30;;
4309;SDS011;2168;53.576;9.980;2023-11-19T11:41:47;1.43;;;1.43;;
4309;SDS011;2168;53.576;9.980;2023-11-19T11:44:12;1.20;;;1.20;;
4309;SDS011;2168;53.576;9.980;2023-11-19T11:49:03;1.70;;;1.70;;
4309;SDS011;2168;53.576;9.980;2023-11-19T12:02:07;1.60;;;1.60;;
4309;SDS011;2168;53.576;9.980;2023-11-19T12:04:33;1.80;;;1.80;;
4309;SDS011;2168;53.576;9.980;2023-11-19T12:07:02;1.40;;;1.40;;
4309;SDS011;2168;53.576;9.980;2023-11-19T12:09:28;2.43;;;2.43;;
4309;SDS011;2168;53.576;9.980;2023-11-19T12:12:06;2.67;;;2.67;;
4309;SDS011;2168;53.576;9.980;2023-11-19T12:19:59;2.00;;;2.00;;
4309;SDS011;2168;53.576;9.980;2023-11-19T12:22:25;2.03;;;2.03;;
4309;SDS011;2168;53.576;9.980;2023-11-19T12:24:50;1.80;;;1.80;;
4309;SDS011;2168;53.576;9.980;2023-11-19T12:27:17;1.67;;;1.67;;
4309;SDS011;2168;53.576;9.980;2023-11-19T12:29:43;2.23;;;2.23;;
4309;SDS011;2168;53.576;9.980;2023-11-19T12:32:11;1.90;;;1.90;;
4309;SDS011;2168;53.576;9.980;2023-11-19T12:34:36;3.47;;;3.47;;
4309;SDS011;2168;53.576;9.980;2023-11-19T12:37:04;2.00;;;2.00;;
4309;SDS011;2168;53.576;9.980;2023-11-19T12:39:30;1.17;;;1.17;;
4309;SDS011;2168;53.576;9.980;2023-11-19T12:41:55;1.50;;;1.50;;
4309;SDS011;2168;53.576;9.980;2023-11-19T12:44:21;1.70;;;1.70;;
4309;SDS011;2168;53.576;9.980;2023-11-19T12:46:58;1.90;;;1.90;;
4309;SDS011;2168;53.576;9.980;2023-11-19T12:49:24;1.10;;;1.10;;
4309;SDS011;2168;53.576;9.980;2023-11-19T12:51:49;2.00;;;2.00;;
4309;SDS011;2168;53.576;9.980;2023-11-19T12:54:14;1.20;;;1.20;;
4309;SDS011;2168;53.576;9.980;2023-11-19T12:56:39;1.20;;;1.20;;
4309;SDS011;2168;53.576;9.980;2023-11-19T12:59:10;2.50;;;2.50;;
4309;SDS011;2168;53.576;9.980;2023-11-19T13:01:36;1.23;;;1.23;;
4309;SDS011;2168;53.576;9.980;2023-11-19T13:04:15;2.60;;;2.60;;
4309;SDS011;2168;53.576;9.980;2023-11-19T13:06:44;2.07;;;2.07;;
4309;SDS011;2168;53.576;9.980;2023-11-19T13:09:11;1.60;;;1.60;;
4309;SDS011;2168;53.576;9.980;2023-11-19T13:11:46;1.87;;;1.87;;
4309;SDS011;2168;53.576;9.980;2023-11-19T13:14:11;2.00;;;2.00;;
4309;SDS011;2168;53.576;9.980;2023-11-19T13:16:37;1.80;;;1.80;;
4309;SDS011;2168;53.576;9.980;2023-11-19T13:19:02;2.40;;;2.40;;
4309;SDS011;2168;53.576;9.980;2023-11-19T13:21:28;1.57;;;1.57;;
4309;SDS011;2168;53.576;9.980;2023-11-19T13:23:54;3.00;;;3.00;;
4309;SDS011;2168;53.576;9.980;2023-11-19T13:26:19;1.90;;;1.90;;
4309;SDS011;2168;53.576;9.980;2023-11-19T13:28:45;2.20;;;2.20;;
4309;SDS011;2168;53.576;9.980;2023-11-19T13:31:11;1.87;;;1.87;;
4309;SDS011;2168;53.576;9.980;2023-11-19T13:33:36;2.20;;;2.20;;
4309;SDS011;2168;53.576;9.980;2023-11-19T13:36:01;1.50;;;1.50;;
4309;SDS011;2168;53.576;9.980;2023-11-19T13:38:31;2.00;;;2.00;;
4309;SDS011;2168;53.576;9.980;2023-11-19T13:40:56;1.90;;;1.90;;
4309;SDS011;2168;53.576;9.980;2023-11-19T13:43:21;2.13;;;2.13;;
4309;SDS011;2168;53.576;9.980;2023-11-19T13:45:46;2.40;;;2.40;;
4309;SDS011;2168;53.576;9.980;2023-11-19T13:48:11;2.27;;;2.27;;
4309;SDS011;2168;53.576;9.980;2023-11-19T13:50:37;1.63;;;1.63;;
4309;SDS011;2168;53.576;9.980;2023-11-19T13:53:02;1.80;;;1.80;;
4309;SDS011;2168;53.576;9.980;2023-11-19T13:55:29;1.80;;;1.80;;
4309;SDS011;2168;53.576;9.980;2023-11-19T13:57:54;2.90;;;2.90;;
4309;SDS011;2168;53.576;9.980;2023-11-19T14:00:20;4.03;;;4.03;;
4309;SDS011;2168;53.576;9.980;2023-11-19T14:02:47;1.87;;;1.87;;
4309;SDS011;2168;53.576;9.980;2023-11-19T14:05:13;2.40;;;2.40;;
4309;SDS011;2168;53.576;9.980;2023-11-19T14:07:39;2.83;;;2.83;;
4309;SDS011;2168;53.576;9.980;2023-11-19T14:10:05;2.03;;;2.03;;
4309;SDS011;2168;53.576;9.980;2023-11-19T14:12:31;2.17;;;2.17;;
4309;SDS011;2168;53.576;9.980;2023-11-19T14:14:57;2.20;;;2.20;;
4309;SDS011;2168;53.576;9.980;2023-11-19T14:17:22;2.40;;;2.40;;
4309;SDS011;2168;53.576;9.980;2023-11-19T14:19:47;1.93;;;1.93;;
4309;SDS011;2168;53.576;9.980;2023-11-19T14:22:12;2.60;;;2.60;;
4309;SDS011;2168;53.576;9.980;2023-11-19T14:24:38;2.50;;;2.50;;
4309;SDS011;2168;53.576;9.980;2023-11-19T14:27:04;2.40;;;2.40;;
4309;SDS011;2168;53.576;9.980;2023-11-19T14:29:30;3.30;;;3.30;;
4309;SDS011;2168;53.576;9.980;2023-11-19T14:31:55;2.60;;;2.60;;
4309;SDS011;2168;53.576;9.980;2023-11-19T14:34:21;3.23;;;3.23;;
4309;SDS011;2168;53.576;9.980;2023-11-19T14:36:46;2.30;;;2.30;;
4309;SDS011;2168;53.576;9.980;2023-11-19T14:39:12;3.60;;;3.60;;
4309;SDS011;2168;53.576;9.980;2023-11-19T14:41:37;2.10;;;2.10;;
4309;SDS011;2168;53.576;9.980;2023-11-19T14:44:03;1.90;;;1.90;;
4309;SDS011;2168;53.576;9.980;2023-11-19T14:46:29;2.50;;;2.50;;
4309;SDS011;2168;53.576;9.980;2023-11-19T14:48:54;2.60;;;2.60;;
4309;SDS011;2168;53.576;9.980;2023-11-19T14:51:19;1.90;;;1.90;;
4309;SDS011;2168;53.576;9.980;2023-11-19T14:53:45;2.93;;;2.93;;
4309;SDS011;2168;53.576;9.980;2023-11-19T14:56:11;2.07;;;2.07;;
4309;SDS011;2168;53.576;9.980;2023-11-19T14:58:37;1.60;;;1.60;;
4309;SDS011;2168;53.576;9.980;2023-11-19T15:01:03;2.40;;;2.40;;
4309;SDS011;2168;53.576;9.980;2023-11-19T15:03:29;2.00;;;2.00;;
4309;SDS011;2168;53.576;9.980;2023-11-19T15:05:54;2.30;;;2.30;;
4309;SDS011;2168;53.576;9.980;2023-11-19T15:08:19;2.20;;;2.20;;
4309;SDS011;2168;53.576;9.980;2023-11-19T15:10:45;1.60;;;1.60;;
4309;SDS011;2168;53.576;9.980;2023-11-19T15:13:11;1.47;;;1.47;;
4309;SDS011;2168;53.576;9.980;2023-11-19T15:15:37;1.77;;;1.77;;
4309;SDS011;2168;53.576;9.980;2023-11-19T15:18:03;2.30;;;2.30;;
4309;SDS011;2168;53.576;9.980;2023-11-19T15:20:29;1.93;;;1.93;;
4309;SDS011;2168;53.576;9.980;2023-11-19T15:22:55;2.40;;;2.40;;
4309;SDS011;2168;53.576;9.980;2023-11-19T15:25:20;2.57;;;2.57;;
4309;SDS011;2168;53.576;9.980;2023-11-19T15:27:46;1.93;;;1.93;;
4309;SDS011;2168;53.576;9.980;2023-11-19T15:30:11;1.80;;;1.80;;
4309;SDS011;2168;53.576;9.980;2023-11-19T15:32:36;2.20;;;2.20;;
4309;SDS011;2168;53.576;9.980;2023-11-19T15:35:02;2.20;;;2.20;;
4309;SDS011;2168;53.576;9.980;2023-11-19T15:37:27;2.20;;;2.20;;
4309;SDS011;2168;53.576;9.980;2023-11-19T15:39:54;2.17;;;2.17;;